sensor_id;sensor_type;location;lat;lon;timestamp;pressure;altitude;pressure_sealevel;temperature;humidity
9525;BME280;15940;48.734;9.112;2023-05-16T00:01:09;96215.50;;;11.45;85.27
9525;BME280;15940;48.734;9.112;2023-05-16T00:03:38;96207.63;;;11.42;86.05
9525;BME280;15940;48.734;9.112;2023-05-16T00:06:07;96209.16;;;11.37;85.50
9525;BME280;15940;48.734;9.112;2023-05-16T00:08:34;96208.66;;;11.39;85.83
9525;BME280;15940;48.734;9.112;2023-05-16T00:11:01;96218.75;;;11.38;85.40
9525;BME280;15940;48.734;9.112;2023-05-16T00:13:28;96209.84;;;11.43;85.92
9525;BME280;15940;48.734;9.112;2023-05-16T00:15:56;96207.41;;;11.34;85.02
9525;BME280;15940;48.734;9.112;2023-05-16T00:18:24;96209.66;;;11.30;85.72
9525;BME280;15940;48.734;9.112;2023-05-16T00:20:52;96201.03;;;11.32;85.53
9525;BME280;15940;48.734;9.112;2023-05-16T00:23:20;96201.03;;;11.32;86.12
9525;BME280;15940;48.734;9.112;2023-05-16T00:25:47;96208.44;;;11.31;85.98
9525;BME280;15940;48.734;9.112;2023-05-16T00:28:14;96204.00;;;11.28;85.98
9525;BME280;15940;48.734;9.112;2023-05-16T00:30:41;96209.66;;;11.30;85.99
9525;BME280;15940;48.734;9.112;2023-05-16T00:33:08;96202.78;;;11.29;86.17
9525;BME280;15940;48.734;9.112;2023-05-16T00:35:35;96204.47;;;11.32;86.19
9525;BME280;15940;48.734;9.112;2023-05-16T00:38:03;96200.06;;;11.29;85.65
9525;BME280;15940;48.734;9.112;2023-05-16T00:40:31;96207.94;;;11.27;85.57
9525;BME280;15940;48.734;9.112;2023-05-16T00:42:58;96198.59;;;11.28;86.29
9525;BME280;15940;48.734;9.112;2023-05-16T00:45:24;96202.03;;;11.29;85.81
9525;BME280;15940;48.734;9.112;2023-05-16T00:47:51;96198.56;;;11.34;85.84
9525;BME280;15940;48.734;9.112;2023-05-16T00:50:18;96199.28;;;11.34;84.94
9525;BME280;15940;48.734;9.112;2023-05-16T00:55:06;96199.81;;;11.27;85.39
9525;BME280;15940;48.734;9.112;2023-05-16T00:57:35;96198.84;;;11.25;84.99
9525;BME280;15940;48.734;9.112;2023-05-16T01:00:03;96204.03;;;11.23;85.67
9525;BME280;15940;48.734;9.112;2023-05-16T01:02:32;96201.81;;;11.15;85.52
9525;BME280;15940;48.734;9.112;2023-05-16T01:05:00;96209.47;;;11.17;85.72
9525;BME280;15940;48.734;9.112;2023-05-16T01:07:28;96212.44;;;11.13;86.37
9525;BME280;15940;48.734;9.112;2023-05-16T01:09:55;96199.63;;;11.14;86.15
9525;BME280;15940;48.734;9.112;2023-05-16T01:12:34;96201.84;;;11.10;86.64
9525;BME280;15940;48.734;9.112;2023-05-16T01:15:08;96210.47;;;11.08;86.75
9525;BME280;15940;48.734;9.112;2023-05-16T01:17:49;96208.78;;;11.00;87.06
9525;BME280;15940;48.734;9.112;2023-05-16T01:20:29;96209.75;;;10.97;87.48
9525;BME280;15940;48.734;9.112;2023-05-16T01:23:17;96204.84;;;10.95;87.58
9525;BME280;15940;48.734;9.112;2023-05-16T01:25:57;96206.31;;;11.02;88.13
9525;BME280;15940;48.734;9.112;2023-05-16T01:28:29;96212.25;;;10.95;87.43
9525;BME280;15940;48.734;9.112;2023-05-16T01:33:28;96214.72;;;10.93;88.30
9525;BME280;15940;48.734;9.112;2023-05-16T01:36:02;96212.75;;;10.87;87.68
9525;BME280;15940;48.734;9.112;2023-05-16T01:38:38;96203.19;;;10.81;87.81
9525;BME280;15940;48.734;9.112;2023-05-16T01:41:17;96205.16;;;10.75;87.88
9525;BME280;15940;48.734;9.112;2023-05-16T01:43:48;96205.88;;;10.75;88.69
9525;BME280;15940;48.734;9.112;2023-05-16T01:46:23;96215.25;;;10.74;88.38
9525;BME280;15940;48.734;9.112;2023-05-16T01:48:55;96205.91;;;10.64;87.86
9525;BME280;15940;48.734;9.112;2023-05-16T01:51:27;96211.09;;;10.56;88.75
9525;BME280;15940;48.734;9.112;2023-05-16T01:54:01;96201.97;;;10.48;88.91
9525;BME280;15940;48.734;9.112;2023-05-16T01:56:31;96210.59;;;10.47;89.14
9525;BME280;15940;48.734;9.112;2023-05-16T01:59:00;96209.63;;;10.44;89.43
9525;BME280;15940;48.734;9.112;2023-05-16T02:01:29;96211.84;;;10.46;89.44
9525;BME280;15940;48.734;9.112;2023-05-16T02:03:58;96214.03;;;10.47;89.37
9525;BME280;15940;48.734;9.112;2023-05-16T02:06:25;96211.59;;;10.44;89.22
9525;BME280;15940;48.734;9.112;2023-05-16T02:08:52;96213.03;;;10.50;90.10
9525;BME280;15940;48.734;9.112;2023-05-16T02:11:19;96218.97;;;10.49;90.39
9525;BME280;15940;48.734;9.112;2023-05-16T02:13:46;96218.47;;;10.50;90.18
9525;BME280;15940;48.734;9.112;2023-05-16T02:16:13;96212.06;;;10.48;88.96
9525;BME280;15940;48.734;9.112;2023-05-16T02:18:40;96208.38;;;10.51;89.55
9525;BME280;15940;48.734;9.112;2023-05-16T02:21:08;96226.34;;;10.54;89.02
9525;BME280;15940;48.734;9.112;2023-05-16T02:23:35;96220.94;;;10.54;89.52
9525;BME280;15940;48.734;9.112;2023-05-16T02:26:02;96217.47;;;10.48;88.94
9525;BME280;15940;48.734;9.112;2023-05-16T02:28:30;96216.75;;;10.47;89.12
9525;BME280;15940;48.734;9.112;2023-05-16T02:30:57;96207.16;;;10.41;89.11
9525;BME280;15940;48.734;9.112;2023-05-16T02:33:24;96211.59;;;10.38;88.90
9525;BME280;15940;48.734;9.112;2023-05-16T02:40:37;96226.63;;;10.34;89.15
9525;BME280;15940;48.734;9.112;2023-05-16T02:43:04;96214.06;;;10.36;89.66
9525;BME280;15940;48.734;9.112;2023-05-16T02:45:31;96215.03;;;10.39;89.74
9525;BME280;15940;48.734;9.112;2023-05-16T02:47:58;96216.03;;;10.36;88.97
9525;BME280;15940;48.734;9.112;2023-05-16T02:50:25;96222.91;;;10.37;89.16
9525;BME280;15940;48.734;9.112;2023-05-16T02:52:52;96217.25;;;10.35;89.85
9525;BME280;15940;48.734;9.112;2023-05-16T02:55:19;96219.47;;;10.30;88.62
9525;BME280;15940;48.734;9.112;2023-05-16T02:57:47;96226.34;;;10.32;89.63
9525;BME280;15940;48.734;9.112;2023-05-16T03:00:15;96228.81;;;10.35;90.04
9525;BME280;15940;48.734;9.112;2023-05-16T03:02:43;96223.16;;;10.33;89.54
9525;BME280;15940;48.734;9.112;2023-05-16T03:05:10;96227.09;;;10.26;89.59
9525;BME280;15940;48.734;9.112;2023-05-16T03:07:37;96216.50;;;10.23;89.69
9525;BME280;15940;48.734;9.112;2023-05-16T03:10:06;96214.75;;;10.20;89.97
9525;BME280;15940;48.734;9.112;2023-05-16T03:12:33;96215.75;;;10.17;90.37
9525;BME280;15940;48.734;9.112;2023-05-16T03:15:02;96216.25;;;10.15;90.22
9525;BME280;15940;48.734;9.112;2023-05-16T03:17:29;96213.53;;;10.15;90.14
9525;BME280;15940;48.734;9.112;2023-05-16T03:19:55;96215.50;;;10.15;90.89
9525;BME280;15940;48.734;9.112;2023-05-16T03:22:22;96216.25;;;10.15;90.18
9525;BME280;15940;48.734;9.112;2023-05-16T03:24:49;96217.72;;;10.16;90.34
9525;BME280;15940;48.734;9.112;2023-05-16T03:27:17;96221.63;;;10.10;90.36
9525;BME280;15940;48.734;9.112;2023-05-16T03:29:44;96220.66;;;10.07;90.94
9525;BME280;15940;48.734;9.112;2023-05-16T03:32:12;96226.56;;;10.06;90.71
9525;BME280;15940;48.734;9.112;2023-05-16T03:34:39;96230.50;;;10.10;91.93
9525;BME280;15940;48.734;9.112;2023-05-16T03:37:06;96219.91;;;10.12;91.49
9525;BME280;15940;48.734;9.112;2023-05-16T03:39:35;96225.31;;;10.12;90.93
9525;BME280;15940;48.734;9.112;2023-05-16T03:42:03;96218.94;;;10.15;91.24
9525;BME280;15940;48.734;9.112;2023-05-16T03:44:30;96216.69;;;10.02;90.74
9525;BME280;15940;48.734;9.112;2023-05-16T03:46:57;96218.19;;;10.03;91.46
9525;BME280;15940;48.734;9.112;2023-05-16T03:49:26;96216.47;;;10.06;91.05
9525;BME280;15940;48.734;9.112;2023-05-16T03:51:53;96214.50;;;9.95;90.95
9525;BME280;15940;48.734;9.112;2023-05-16T03:54:20;96218.91;;;9.93;91.81
9525;BME280;15940;48.734;9.112;2023-05-16T03:56:47;96213.78;;;9.95;91.53
9525;BME280;15940;48.734;9.112;2023-05-16T03:59:14;96226.81;;;9.96;92.77
9525;BME280;15940;48.734;9.112;2023-05-16T04:01:41;96226.56;;;10.00;92.17
9525;BME280;15940;48.734;9.112;2023-05-16T04:04:08;96230.75;;;9.95;91.25
9525;BME280;15940;48.734;9.112;2023-05-16T04:06:36;96223.59;;;9.92;91.70
9525;BME280;15940;48.734;9.112;2023-05-16T04:09:03;96232.94;;;9.91;92.03
9525;BME280;15940;48.734;9.112;2023-05-16T04:11:31;96227.50;;;9.91;92.15
9525;BME280;15940;48.734;9.112;2023-05-16T04:13:58;96232.19;;;9.91;92.34
9525;BME280;15940;48.734;9.112;2023-05-16T04:16:26;96236.38;;;9.92;92.35
9525;BME280;15940;48.734;9.112;2023-05-16T04:18:53;96235.41;;;9.95;92.69
9525;BME280;15940;48.734;9.112;2023-05-16T04:21:20;96238.34;;;9.97;92.81
9525;BME280;15940;48.734;9.112;2023-05-16T04:23:49;96232.47;;;9.98;92.85
9525;BME280;15940;48.734;9.112;2023-05-16T04:26:15;96236.38;;;10.03;92.77
9525;BME280;15940;48.734;9.112;2023-05-16T04:28:42;96235.66;;;10.02;92.67
9525;BME280;15940;48.734;9.112;2023-05-16T04:31:09;96242.31;;;10.07;93.06
9525;BME280;15940;48.734;9.112;2023-05-16T04:33:38;96241.56;;;10.07;92.49
9525;BME280;15940;48.734;9.112;2023-05-16T04:36:06;96254.34;;;10.12;92.79
9525;BME280;15940;48.734;9.112;2023-05-16T04:38:33;96244.78;;;10.16;92.78
9525;BME280;15940;48.734;9.112;2023-05-16T04:41:01;96245.75;;;10.19;92.70
9525;BME280;15940;48.734;9.112;2023-05-16T04:43:29;96252.44;;;10.23;93.13
9525;BME280;15940;48.734;9.112;2023-05-16T04:45:56;96252.69;;;10.31;93.04
9525;BME280;15940;48.734;9.112;2023-05-16T04:48:24;96261.06;;;10.39;92.85
9525;BME280;15940;48.734;9.112;2023-05-16T04:50:51;96258.84;;;10.43;92.35
9525;BME280;15940;48.734;9.112;2023-05-16T04:53:18;96261.56;;;10.43;91.71
9525;BME280;15940;48.734;9.112;2023-05-16T04:55:45;96263.03;;;10.44;91.52
9525;BME280;15940;48.734;9.112;2023-05-16T04:58:13;96269.69;;;10.43;91.84
9525;BME280;15940;48.734;9.112;2023-05-16T05:00:41;96263.78;;;10.44;92.11
9525;BME280;15940;48.734;9.112;2023-05-16T05:03:08;96269.19;;;10.44;91.52
9525;BME280;15940;48.734;9.112;2023-05-16T05:05:35;96267.97;;;10.45;91.48
9525;BME280;15940;48.734;9.112;2023-05-16T05:08:02;96275.59;;;10.47;91.74
9525;BME280;15940;48.734;9.112;2023-05-16T05:10:29;96276.81;;;10.46;92.03
9525;BME280;15940;48.734;9.112;2023-05-16T05:12:56;96273.88;;;10.44;92.05
9525;BME280;15940;48.734;9.112;2023-05-16T05:15:25;96279.00;;;10.42;91.97
9525;BME280;15940;48.734;9.112;2023-05-16T05:17:52;96275.09;;;10.48;92.07
9525;BME280;15940;48.734;9.112;2023-05-16T05:20:19;96278.78;;;10.51;91.65
9525;BME280;15940;48.734;9.112;2023-05-16T05:22:46;96267.47;;;10.52;91.73
9525;BME280;15940;48.734;9.112;2023-05-16T05:25:13;96267.44;;;10.58;91.81
9525;BME280;15940;48.734;9.112;2023-05-16T05:27:40;96267.44;;;10.58;91.16
9525;BME280;15940;48.734;9.112;2023-05-16T05:30:08;96267.69;;;10.60;91.27
9525;BME280;15940;48.734;9.112;2023-05-16T05:32:37;96275.34;;;10.67;90.99
9525;BME280;15940;48.734;9.112;2023-05-16T05:35:05;96278.03;;;10.73;91.02
9525;BME280;15940;48.734;9.112;2023-05-16T05:37:32;96273.84;;;10.77;91.36
9525;BME280;15940;48.734;9.112;2023-05-16T05:39:59;96273.34;;;10.79;90.72
9525;BME280;15940;48.734;9.112;2023-05-16T05:42:26;96268.16;;;10.86;90.47
9525;BME280;15940;48.734;9.112;2023-05-16T05:44:53;96271.88;;;10.83;90.63
9525;BME280;15940;48.734;9.112;2023-05-16T05:47:20;96270.16;;;10.80;90.26
9525;BME280;15940;48.734;9.112;2023-05-16T05:49:49;96283.22;;;10.82;90.90
9525;BME280;15940;48.734;9.112;2023-05-16T05:52:16;96288.13;;;10.78;90.43
9525;BME280;15940;48.734;9.112;2023-05-16T05:54:43;96291.09;;;10.74;90.38
9525;BME280;15940;48.734;9.112;2023-05-16T05:57:10;96288.88;;;10.73;90.82
9525;BME280;15940;48.734;9.112;2023-05-16T05:59:37;96286.66;;;10.66;90.83
9525;BME280;15940;48.734;9.112;2023-05-16T06:02:05;96298.97;;;10.67;90.70
9525;BME280;15940;48.734;9.112;2023-05-16T06:04:33;96295.03;;;10.68;91.22
9525;BME280;15940;48.734;9.112;2023-05-16T06:07:02;96291.59;;;10.73;91.60
9525;BME280;15940;48.734;9.112;2023-05-16T06:09:29;96301.44;;;10.76;91.15
9525;BME280;15940;48.734;9.112;2023-05-16T06:11:56;96298.25;;;10.72;90.36
9525;BME280;15940;48.734;9.112;2023-05-16T06:14:23;96304.13;;;10.76;90.92
9525;BME280;15940;48.734;9.112;2023-05-16T06:16:50;96296.50;;;10.80;90.96
9525;BME280;15940;48.734;9.112;2023-05-16T06:19:17;96302.91;;;10.82;90.19
9525;BME280;15940;48.734;9.112;2023-05-16T06:21:44;96302.91;;;10.88;90.47
9525;BME280;15940;48.734;9.112;2023-05-16T06:24:12;96298.22;;;11.00;90.42
9525;BME280;15940;48.734;9.112;2023-05-16T06:26:39;96304.59;;;11.13;90.12
9525;BME280;15940;48.734;9.112;2023-05-16T06:29:06;96297.69;;;11.18;89.90
9525;BME280;15940;48.734;9.112;2023-05-16T06:31:33;96301.13;;;11.30;89.04
9525;BME280;15940;48.734;9.112;2023-05-16T06:34:00;96309.00;;;11.28;88.83
9525;BME280;15940;48.734;9.112;2023-05-16T06:36:27;96314.91;;;11.32;88.64
9525;BME280;15940;48.734;9.112;2023-05-16T06:38:54;96319.34;;;11.29;87.94
9525;BME280;15940;48.734;9.112;2023-05-16T06:41:22;96317.88;;;11.28;87.79
9525;BME280;15940;48.734;9.112;2023-05-16T06:43:49;96317.38;;;11.24;87.73
9525;BME280;15940;48.734;9.112;2023-05-16T06:46:17;96310.50;;;11.23;87.30
9525;BME280;15940;48.734;9.112;2023-05-16T06:48:43;96315.91;;;11.29;87.21
9525;BME280;15940;48.734;9.112;2023-05-16T06:51:10;96312.19;;;11.32;86.65
9525;BME280;15940;48.734;9.112;2023-05-16T06:53:37;96313.94;;;11.29;86.35
9525;BME280;15940;48.734;9.112;2023-05-16T06:56:05;96319.59;;;11.26;86.59
9525;BME280;15940;48.734;9.112;2023-05-16T06:58:33;96314.44;;;11.28;86.46
9525;BME280;15940;48.734;9.112;2023-05-16T07:01:00;96321.34;;;11.23;86.38
9525;BME280;15940;48.734;9.112;2023-05-16T07:03:27;96318.16;;;11.19;86.20
9525;BME280;15940;48.734;9.112;2023-05-16T07:05:54;96321.13;;;11.10;86.44
9525;BME280;15940;48.734;9.112;2023-05-16T07:08:21;96326.28;;;11.08;87.29
9525;BME280;15940;48.734;9.112;2023-05-16T07:10:48;96327.03;;;11.03;87.55
9525;BME280;15940;48.734;9.112;2023-05-16T07:13:15;96326.78;;;11.06;88.14
9525;BME280;15940;48.734;9.112;2023-05-16T07:15:43;96337.13;;;11.02;87.46
9525;BME280;15940;48.734;9.112;2023-05-16T07:18:10;96322.09;;;11.07;86.77
9525;BME280;15940;48.734;9.112;2023-05-16T07:20:37;96326.53;;;11.04;86.73
9525;BME280;15940;48.734;9.112;2023-05-16T07:23:04;96330.25;;;11.01;86.68
9525;BME280;15940;48.734;9.112;2023-05-16T07:25:31;96332.72;;;10.99;86.31
9525;BME280;15940;48.734;9.112;2023-05-16T07:27:58;96331.47;;;11.06;86.86
9525;BME280;15940;48.734;9.112;2023-05-16T07:30:25;96329.00;;;11.13;86.18
9525;BME280;15940;48.734;9.112;2023-05-16T07:32:54;96332.66;;;11.16;86.05
9525;BME280;15940;48.734;9.112;2023-05-16T07:35:21;96332.66;;;11.16;86.39
9525;BME280;15940;48.734;9.112;2023-05-16T07:37:47;96334.38;;;11.25;85.84
9525;BME280;15940;48.734;9.112;2023-05-16T07:40:14;96337.84;;;11.20;85.82
9525;BME280;15940;48.734;9.112;2023-05-16T07:42:42;96343.03;;;11.18;85.99
9525;BME280;15940;48.734;9.112;2023-05-16T07:45:10;96353.16;;;11.11;85.97
9525;BME280;15940;48.734;9.112;2023-05-16T07:47:36;96344.25;;;11.16;86.57
9525;BME280;15940;48.734;9.112;2023-05-16T07:50:06;96350.41;;;11.28;86.59
9525;BME280;15940;48.734;9.112;2023-05-16T07:52:33;96356.84;;;11.20;84.59
9525;BME280;15940;48.734;9.112;2023-05-16T07:55:00;96357.81;;;11.16;85.39
9525;BME280;15940;48.734;9.112;2023-05-16T07:57:28;96353.63;;;11.15;85.94
9525;BME280;15940;48.734;9.112;2023-05-16T07:59:55;96352.38;;;11.16;86.33
9525;BME280;15940;48.734;9.112;2023-05-16T08:02:22;96347.22;;;11.24;86.98
9525;BME280;15940;48.734;9.112;2023-05-16T08:04:50;96348.66;;;11.42;86.84
9525;BME280;15940;48.734;9.112;2023-05-16T08:07:19;96355.31;;;11.47;85.72
9525;BME280;15940;48.734;9.112;2023-05-16T08:09:46;96352.34;;;11.50;85.84
9525;BME280;15940;48.734;9.112;2023-05-16T08:12:12;96358.03;;;11.47;85.14
9525;BME280;15940;48.734;9.112;2023-05-16T08:14:39;96359.50;;;11.42;85.00
9525;BME280;15940;48.734;9.112;2023-05-16T08:17:06;96352.84;;;11.43;85.66
9525;BME280;15940;48.734;9.112;2023-05-16T08:19:34;96358.03;;;11.35;85.47
9525;BME280;15940;48.734;9.112;2023-05-16T08:22:01;96362.00;;;11.29;85.75
9525;BME280;15940;48.734;9.112;2023-05-16T08:24:29;96370.63;;;11.22;86.34
9525;BME280;15940;48.734;9.112;2023-05-16T08:26:56;96369.88;;;11.15;87.36
9525;BME280;15940;48.734;9.112;2023-05-16T08:29:23;96371.38;;;11.16;87.25
9525;BME280;15940;48.734;9.112;2023-05-16T08:31:51;96372.34;;;11.13;86.77
9525;BME280;15940;48.734;9.112;2023-05-16T08:34:18;96363.75;;;11.09;87.42
9525;BME280;15940;48.734;9.112;2023-05-16T08:36:45;96365.47;;;11.07;87.47
9525;BME280;15940;48.734;9.112;2023-05-16T08:39:11;96373.59;;;11.01;87.38
9525;BME280;15940;48.734;9.112;2023-05-16T08:41:40;96375.81;;;10.97;87.78
9525;BME280;15940;48.734;9.112;2023-05-16T08:44:07;96373.34;;;10.94;87.16
9525;BME280;15940;48.734;9.112;2023-05-16T08:46:36;96374.59;;;10.93;86.76
9525;BME280;15940;48.734;9.112;2023-05-16T08:49:07;96385.16;;;10.85;86.58
9525;BME280;15940;48.734;9.112;2023-05-16T08:51:36;96382.19;;;10.77;85.65
9525;BME280;15940;48.734;9.112;2023-05-16T08:54:09;96380.00;;;10.81;85.88
9525;BME280;15940;48.734;9.112;2023-05-16T08:56:37;96382.22;;;10.83;85.31
9525;BME280;15940;48.734;9.112;2023-05-16T08:59:07;96389.34;;;10.75;85.41
9525;BME280;15940;48.734;9.112;2023-05-16T09:01:36;96393.78;;;10.72;85.99
9525;BME280;15940;48.734;9.112;2023-05-16T09:04:07;96396.00;;;10.74;86.29
9525;BME280;15940;48.734;9.112;2023-05-16T09:06:34;96403.16;;;10.71;85.68
9525;BME280;15940;48.734;9.112;2023-05-16T09:09:01;96397.72;;;10.71;86.30
9525;BME280;15940;48.734;9.112;2023-05-16T09:11:29;96391.56;;;10.71;86.75
9525;BME280;15940;48.734;9.112;2023-05-16T09:13:56;96404.13;;;10.74;86.97
9525;BME280;15940;48.734;9.112;2023-05-16T09:16:24;96397.97;;;10.73;87.64
9525;BME280;15940;48.734;9.112;2023-05-16T09:18:54;96398.94;;;10.70;87.46
9525;BME280;15940;48.734;9.112;2023-05-16T09:21:26;96394.25;;;10.65;87.79
9525;BME280;15940;48.734;9.112;2023-05-16T09:23:53;96389.09;;;10.67;88.38
9525;BME280;15940;48.734;9.112;2023-05-16T09:26:21;96389.84;;;10.79;88.35
9525;BME280;15940;48.734;9.112;2023-05-16T09:28:52;96388.38;;;11.00;88.73
9525;BME280;15940;48.734;9.112;2023-05-16T09:31:20;96384.94;;;11.28;87.85
9525;BME280;15940;48.734;9.112;2023-05-16T09:33:48;96389.84;;;11.40;86.92
9525;BME280;15940;48.734;9.112;2023-05-16T09:36:15;96392.03;;;11.42;86.04
9525;BME280;15940;48.734;9.112;2023-05-16T09:38:43;96383.19;;;11.47;85.84
9525;BME280;15940;48.734;9.112;2023-05-16T09:41:10;96386.84;;;11.55;85.39
9525;BME280;15940;48.734;9.112;2023-05-16T09:43:39;96386.81;;;11.66;84.73
9525;BME280;15940;48.734;9.112;2023-05-16T09:46:07;96386.78;;;11.72;83.41
9525;BME280;15940;48.734;9.112;2023-05-16T09:48:40;96384.25;;;12.02;83.99
9525;BME280;15940;48.734;9.112;2023-05-16T09:51:11;96381.41;;;12.30;83.94
9525;BME280;15940;48.734;9.112;2023-05-16T09:53:39;96380.00;;;12.59;82.70
9525;BME280;15940;48.734;9.112;2023-05-16T09:58:37;96371.44;;;12.49;78.36
9525;BME280;15940;48.734;9.112;2023-05-16T10:01:05;96382.28;;;12.49;80.09
9525;BME280;15940;48.734;9.112;2023-05-16T10:03:34;96381.75;;;12.56;81.23
9525;BME280;15940;48.734;9.112;2023-05-16T10:06:03;96387.13;;;12.68;81.42
9525;BME280;15940;48.734;9.112;2023-05-16T10:08:32;96378.44;;;12.75;80.40
9525;BME280;15940;48.734;9.112;2023-05-16T10:11:02;96370.38;;;12.64;79.64
9525;BME280;15940;48.734;9.112;2023-05-16T10:13:31;96381.75;;;12.62;79.92
9525;BME280;15940;48.734;9.112;2023-05-16T10:16:06;96382.13;;;12.77;80.50
9525;BME280;15940;48.734;9.112;2023-05-16T10:18:35;96373.06;;;12.99;80.13
9525;BME280;15940;48.734;9.112;2023-05-16T10:21:06;96366.84;;;13.04;79.17
9525;BME280;15940;48.734;9.112;2023-05-16T10:23:34;96371.59;;;12.98;77.32
9525;BME280;15940;48.734;9.112;2023-05-16T10:26:02;96371.13;;;12.94;77.50
9525;BME280;15940;48.734;9.112;2023-05-16T10:28:31;96370.94;;;12.86;76.50
9525;BME280;15940;48.734;9.112;2023-05-16T10:31:00;96375.44;;;12.78;77.32
9525;BME280;15940;48.734;9.112;2023-05-16T10:33:27;96382.09;;;12.83;78.49
9525;BME280;15940;48.734;9.112;2023-05-16T10:35:54;96383.28;;;12.87;79.78
9525;BME280;15940;48.734;9.112;2023-05-16T10:38:22;96382.50;;;12.93;79.36
9525;BME280;15940;48.734;9.112;2023-05-16T10:40:50;96380.88;;;12.78;78.94
9525;BME280;15940;48.734;9.112;2023-05-16T10:43:25;96386.47;;;12.56;80.15
9525;BME280;15940;48.734;9.112;2023-05-16T10:45:54;96384.91;;;12.25;81.36
9525;BME280;15940;48.734;9.112;2023-05-16T10:48:30;96387.19;;;12.10;81.90
9525;BME280;15940;48.734;9.112;2023-05-16T10:50:57;96385.03;;;11.91;83.84
9525;BME280;15940;48.734;9.112;2023-05-16T10:53:30;96387.28;;;11.76;84.05
9525;BME280;15940;48.734;9.112;2023-05-16T10:56:10;96388.81;;;11.55;85.31
9525;BME280;15940;48.734;9.112;2023-05-16T10:58:46;96391.78;;;11.45;87.52
9525;BME280;15940;48.734;9.112;2023-05-16T11:01:22;96392.03;;;11.36;87.31
9525;BME280;15940;48.734;9.112;2023-05-16T11:04:11;96397.72;;;11.27;88.30
9525;BME280;15940;48.734;9.112;2023-05-16T11:06:50;96389.84;;;11.12;89.75
9525;BME280;15940;48.734;9.112;2023-05-16T11:09:21;96385.91;;;10.97;90.28
9525;BME280;15940;48.734;9.112;2023-05-16T11:11:59;96401.69;;;10.81;90.84
9525;BME280;15940;48.734;9.112;2023-05-16T11:14:33;96397.97;;;10.73;91.21
9525;BME280;15940;48.734;9.112;2023-05-16T11:17:06;96411.28;;;10.77;93.02
9525;BME280;15940;48.734;9.112;2023-05-16T11:19:42;96416.44;;;10.75;92.56
9525;BME280;15940;48.734;9.112;2023-05-16T11:22:24;96412.00;;;10.72;94.26
9525;BME280;15940;48.734;9.112;2023-05-16T11:24:55;96412.00;;;10.66;93.82
9525;BME280;15940;48.734;9.112;2023-05-16T11:27:26;96417.16;;;10.64;94.24
9525;BME280;15940;48.734;9.112;2023-05-16T11:29:58;96423.78;;;10.57;94.31
9525;BME280;15940;48.734;9.112;2023-05-16T11:32:25;96423.53;;;10.50;94.17
9525;BME280;15940;48.734;9.112;2023-05-16T11:34:53;96423.28;;;10.48;95.10
9525;BME280;15940;48.734;9.112;2023-05-16T11:37:20;96426.44;;;10.41;94.47
9525;BME280;15940;48.734;9.112;2023-05-16T11:39:47;96434.81;;;10.37;95.70
9525;BME280;15940;48.734;9.112;2023-05-16T11:42:14;96435.31;;;10.41;95.92
9525;BME280;15940;48.734;9.112;2023-05-16T11:44:43;96437.06;;;10.50;96.22
9525;BME280;15940;48.734;9.112;2023-05-16T11:47:10;96436.31;;;10.49;95.38
9525;BME280;15940;48.734;9.112;2023-05-16T11:49:37;96433.88;;;10.46;96.11
9525;BME280;15940;48.734;9.112;2023-05-16T11:52:07;96439.53;;;10.48;96.11
9525;BME280;15940;48.734;9.112;2023-05-16T11:54:36;96443.22;;;10.50;95.76
9525;BME280;15940;48.734;9.112;2023-05-16T11:57:03;96443.72;;;10.49;95.73
9525;BME280;15940;48.734;9.112;2023-05-16T11:59:30;96442.25;;;10.59;96.33
9525;BME280;15940;48.734;9.112;2023-05-16T12:01:58;96439.78;;;10.61;96.30
9525;BME280;15940;48.734;9.112;2023-05-16T12:04:28;96449.66;;;10.64;95.99
9525;BME280;15940;48.734;9.112;2023-05-16T12:07:00;96447.47;;;10.63;95.94
9525;BME280;15940;48.734;9.112;2023-05-16T12:09:31;96447.47;;;10.63;96.24
9525;BME280;15940;48.734;9.112;2023-05-16T12:11:58;96447.47;;;10.63;96.56
9525;BME280;15940;48.734;9.112;2023-05-16T12:14:26;96444.47;;;10.61;96.39
9525;BME280;15940;48.734;9.112;2023-05-16T12:16:53;96454.78;;;10.51;95.61
9525;BME280;15940;48.734;9.112;2023-05-16T12:19:20;96469.06;;;10.46;95.88
9525;BME280;15940;48.734;9.112;2023-05-16T12:21:51;96464.63;;;10.43;95.66
9525;BME280;15940;48.734;9.112;2023-05-16T12:24:18;96460.91;;;10.40;95.74
9525;BME280;15940;48.734;9.112;2023-05-16T12:26:47;96468.78;;;10.38;95.73
9525;BME280;15940;48.734;9.112;2023-05-16T12:29:14;96462.13;;;10.39;95.90
9525;BME280;15940;48.734;9.112;2023-05-16T12:31:41;96456.25;;;10.46;95.72
9525;BME280;15940;48.734;9.112;2023-05-16T12:34:15;96464.38;;;10.46;94.87
9525;BME280;15940;48.734;9.112;2023-05-16T12:36:42;96457.53;;;10.56;94.79
9525;BME280;15940;48.734;9.112;2023-05-16T12:39:12;96455.56;;;10.68;94.94
9525;BME280;15940;48.734;9.112;2023-05-16T12:41:40;96455.34;;;10.77;94.80
9525;BME280;15940;48.734;9.112;2023-05-16T12:44:13;96459.56;;;10.90;94.48
9525;BME280;15940;48.734;9.112;2023-05-16T12:46:43;96450.72;;;11.00;93.38
9525;BME280;15940;48.734;9.112;2023-05-16T12:49:11;96449.00;;;11.03;93.42
9525;BME280;15940;48.734;9.112;2023-05-16T12:51:39;96455.91;;;11.09;93.19
9525;BME280;15940;48.734;9.112;2023-05-16T12:54:08;96456.63;;;11.15;92.98
9525;BME280;15940;48.734;9.112;2023-05-16T12:56:36;96462.06;;;11.21;92.44
9525;BME280;15940;48.734;9.112;2023-05-16T12:59:03;96458.63;;;11.21;92.54
9525;BME280;15940;48.734;9.112;2023-05-16T13:01:32;96467.22;;;11.08;92.58
9525;BME280;15940;48.734;9.112;2023-05-16T13:04:00;96474.09;;;10.98;91.36
9525;BME280;15940;48.734;9.112;2023-05-16T13:06:27;96474.13;;;10.92;92.24
9525;BME280;15940;48.734;9.112;2023-05-16T13:08:54;96464.75;;;11.04;92.87
9525;BME280;15940;48.734;9.112;2023-05-16T13:11:22;96480.03;;;11.02;91.33
9525;BME280;15940;48.734;9.112;2023-05-16T13:13:49;96481.50;;;10.92;92.67
9525;BME280;15940;48.734;9.112;2023-05-16T13:16:16;96486.66;;;10.84;91.74
9525;BME280;15940;48.734;9.112;2023-05-16T13:18:44;96485.41;;;10.74;92.02
9525;BME280;15940;48.734;9.112;2023-05-16T13:21:11;96485.84;;;10.55;90.64
9525;BME280;15940;48.734;9.112;2023-05-16T13:23:38;96493.69;;;10.42;90.93
9525;BME280;15940;48.734;9.112;2023-05-16T13:26:05;96499.50;;;10.24;90.03
9525;BME280;15940;48.734;9.112;2023-05-16T13:28:32;96496.69;;;10.13;90.63
9525;BME280;15940;48.734;9.112;2023-05-16T13:30:59;96503.03;;;9.98;89.88